Lipetsk, Russia
Current Conditions -  °F | °C
As of 1:30 AM on Thursday 23 Oct 2014 (Local Time) from UUOO Reporting Station
Broken Clouds Broken Clouds  
Wind Chill: 21°   Ceiling: 2300
Heat Index: 27°   Visibility: 6mi
Dew Point: 16°   Wind: 4mph
Humidity: 64%   Direction: NA
Pressure: 30.03"   Gusts: NA
Location:  52.62°N, 39.62°E
Report Text: UUOO 222230Z VRB02MPS 9999 BKN023 M03/M09 Q1017 NOSIG RMK 30090070
Loading
Personal Weather Stations






























Interactive Weather Map
Tropical Storm Tracking
New forecast layout! Learn more

10-Day Weather Forecast

Advertisements
Track Severe Weather on mobile